Time;durP1;ratioP1;P1;durP2;ratioP2;P2;SDS_P1;SDS_P2;PMS_P1;PMS_P2;Temp;Humidity;BMP_temperature;BMP_pressure;BME280_temperature;BME280_humidity;BME280_pressure;Samples;Min_cycle;Max_cycle;Signal;HPM_P1;HPM_P2
2024/04/03 00:03:49;;;;;;;5.17;1.63;;;;;;;9.68;100.00;99323.55;5147880;56;1137076;-82
2024/04/03 00:08:55;;;;;;;3.50;1.40;;;;;;;9.64;100.00;99330.91;5126542;56;1136966;-82
2024/04/03 00:14:01;;;;;;;4.57;1.67;;;;;;;9.60;100.00;99324.28;5042999;57;1136536;-81
2024/04/03 00:19:07;;;;;;;3.43;1.27;;;;;;;9.55;100.00;99322.54;5107178;56;1136894;-82
2024/04/03 00:24:12;;;;;;;5.10;1.57;;;;;;;9.50;100.00;99320.31;5127368;56;1136729;-82
2024/04/03 00:29:18;;;;;;;2.33;1.10;;;;;;;9.42;100.00;99309.64;5127600;56;1136531;-81
2024/04/03 00:34:24;;;;;;;3.73;1.20;;;;;;;9.36;100.00;99313.32;5148309;56;1136482;-82
2024/04/03 00:39:30;;;;;;;3.80;1.50;;;;;;;9.32;100.00;99318.04;5054230;56;1136487;-83
2024/04/03 00:44:35;;;;;;;1.50;0.98;;;;;;;9.25;100.00;99310.36;5043649;56;1136543;-83
2024/04/03 00:49:45;;;;;;;3.33;1.30;;;;;;;9.24;100.00;99315.77;5043586;56;1136556;-81
2024/04/03 00:54:51;;;;;;;3.83;1.73;;;;;;;9.20;100.00;99305.97;5063006;56;1136974;-82
2024/04/03 00:59:57;;;;;;;1.87;1.07;;;;;;;9.22;100.00;99308.48;5082884;56;1136933;-82
2024/04/03 01:05:02;;;;;;;5.60;1.97;;;;;;;9.24;100.00;99315.28;5083248;56;1136846;-82
2024/04/03 01:10:09;;;;;;;3.30;1.57;;;;;;;9.28;100.00;99311.88;5063141;57;1136518;-81
2024/04/03 01:15:15;;;;;;;2.47;1.47;;;;;;;9.29;100.00;99309.59;5085404;56;1136656;-82
2024/04/03 01:20:21;;;;;;;4.53;2.10;;;;;;;9.30;100.00;99309.45;5127768;56;1136435;-82
2024/04/03 01:25:26;;;;;;;2.37;1.50;;;;;;;9.32;100.00;99307.48;5147562;56;1136525;-83
2024/04/03 01:30:32;;;;;;;3.80;2.00;;;;;;;9.29;100.00;99289.81;5127605;56;1136667;-81
2024/04/03 01:35:38;;;;;;;2.60;1.70;;;;;;;9.27;100.00;99291.75;5124455;56;1136733;-82
2024/04/03 01:40:44;;;;;;;1.60;1.50;;;;;;;9.25;100.00;99302.92;4960149;57;1136620;-82
2024/04/03 01:46:01;;;;;;;5.00;1.20;;;;;;;9.25;100.00;99295.02;5147903;56;1136464;-81
2024/04/03 01:51:09;;;;;;;2.67;1.30;;;;;;;9.28;100.00;99294.73;5127271;56;1136667;-80
2024/04/03 01:56:15;;;;;;;3.67;1.40;;;;;;;9.32;100.00;99292.17;5127429;56;1137099;-83
2024/04/03 02:01:21;;;;;;;1.20;1.10;;;;;;;9.32;100.00;99285.58;5147137;56;1136941;-82
2024/04/03 02:06:26;;;;;;;0.93;0.87;;;;;;;9.31;100.00;99291.34;5141618;56;1137225;-83
2024/04/03 02:11:32;;;;;;;2.87;1.22;;;;;;;9.31;100.00;99288.70;5134379;56;1136991;-82
2024/04/03 02:16:38;;;;;;;1.60;1.47;;;;;;;9.28;100.00;99276.27;5127616;56;1136750;-82
2024/04/03 02:21:43;;;;;;;5.50;1.50;;;;;;;9.24;100.00;99271.75;5147443;56;1136635;-81
2024/04/03 02:26:49;;;;;;;3.67;1.57;;;;;;;9.24;100.00;99277.03;5126887;56;1136479;-81
2024/04/03 02:31:54;;;;;;;2.50;1.63;;;;;;;9.24;100.00;99269.60;5124410;56;1136475;-80
2024/04/03 02:37:00;;;;;;;2.77;1.43;;;;;;;9.24;100.00;99278.34;5146405;55;1136646;-81
2024/04/03 02:42:06;;;;;;;2.43;2.00;;;;;;;9.22;100.00;99275.50;4960005;58;1136692;-82
2024/04/03 02:47:12;;;;;;;6.23;1.57;;;;;;;9.16;100.00;99274.28;5127131;56;1136720;-81
2024/04/03 02:52:18;;;;;;;1.83;1.40;;;;;;;9.11;100.00;99272.53;4979613;57;1136763;-82
2024/04/03 02:57:23;;;;;;;3.30;1.57;;;;;;;9.06;100.00;99282.17;5127114;56;1136589;-81
2024/04/03 03:02:29;;;;;;;4.43;1.80;;;;;;;8.99;100.00;99282.89;4959032;57;1136751;-82
2024/04/03 03:07:35;;;;;;;3.35;1.95;;;;;;;8.89;100.00;99300.01;5088522;56;1136675;-82
2024/04/03 03:12:40;;;;;;;2.30;2.08;;;;;;;8.78;100.00;99294.88;5063342;56;1136836;-82
2024/04/03 03:17:46;;;;;;;2.90;1.83;;;;;;;8.68;100.00;99279.06;5043588;56;1136990;-81
2024/04/03 03:22:51;;;;;;;2.83;1.98;;;;;;;8.68;100.00;99279.06;5043666;56;1136483;-82
2024/04/03 03:27:57;;;;;;;1.30;1.20;;;;;;;8.64;100.00;99271.55;5060851;56;1136655;-82
2024/04/03 03:33:03;;;;;;;2.07;1.23;;;;;;;8.57;100.00;99277.84;5042909;56;1136333;-82
2024/04/03 03:38:09;;;;;;;0.95;0.60;;;;;;;8.48;100.00;99277.35;5043443;56;1136373;-82
2024/04/03 03:43:15;;;;;;;1.40;0.80;;;;;;;8.41;100.00;99277.05;5063163;57;1136696;-81
2024/04/03 03:52:35;;;;;;;0.43;0.40;;;;;;;8.39;100.00;99271.11;5043271;57;1136771;-81
2024/04/03 03:53:32;;;;;;;0.40;0.40;;;;;;;8.34;100.00;99269.36;5037377;56;1136956;-82
2024/04/03 03:58:37;;;;;;;0.50;0.50;;;;;;;8.30;100.00;99271.88;5122360;56;1136901;-81
2024/04/03 04:03:43;;;;;;;0.95;0.40;;;;;;;8.26;100.00;99273.10;5147936;56;1136745;-81
2024/04/03 04:08:49;;;;;;;2.20;0.60;;;;;;;8.28;100.00;99263.75;5127955;56;1136615;-82
2024/04/03 04:13:55;;;;;;;0.77;0.50;;;;;;;8.27;100.00;99271.30;5127086;56;1136925;-81
2024/04/03 04:19:01;;;;;;;0.67;0.67;;;;;;;8.22;100.00;99269.09;5147741;56;1136517;-80
2024/04/03 04:24:07;;;;;;;3.43;0.50;;;;;;;8.18;100.00;99272.13;5124936;56;1137025;-79
2024/04/03 04:29:13;;;;;;;0.60;0.60;;;;;;;8.13;100.00;99273.34;5126136;56;1136779;-79
2024/04/03 04:34:18;;;;;;;1.50;0.73;;;;;;;8.13;100.00;99273.34;5148063;56;1136815;-81
2024/04/03 04:39:24;;;;;;;2.53;0.70;;;;;;;8.12;100.00;99266.89;5055542;56;1136447;-81
2024/04/03 04:44:30;;;;;;;2.17;1.47;;;;;;;8.16;100.00;99273.56;5022314;56;1257135;-80
2024/04/03 04:49:36;;;;;;;2.60;1.20;;;;;;;8.20;100.00;99266.23;5043854;56;1136612;-80
2024/04/03 04:54:41;;;;;;;5.30;1.42;;;;;;;8.19;100.00;99275.94;5139999;56;1136222;-80
2024/04/03 04:59:47;;;;;;;1.73;1.23;;;;;;;8.21;100.00;99270.06;5127795;56;1136716;-80
2024/04/03 05:04:54;;;;;;;1.57;1.10;;;;;;;8.23;100.00;99275.20;5127762;56;1136896;-80
2024/04/03 05:10:00;;;;;;;1.17;1.17;;;;;;;8.25;100.00;99274.06;5152491;56;1136365;-81
2024/04/03 05:15:06;;;;;;;1.37;1.27;;;;;;;8.28;100.00;99281.70;5143781;56;1136579;-80
2024/04/03 05:20:12;;;;;;;1.17;1.17;;;;;;;8.33;100.00;99278.70;5142820;56;1136562;-81
2024/04/03 05:25:18;;;;;;;2.40;1.30;;;;;;;8.35;100.00;99282.88;5161816;56;1136891;-81
2024/04/03 05:30:24;;;;;;;1.98;1.07;;;;;;;8.32;100.00;99337.14;5143071;56;1136783;-81
2024/04/03 05:35:30;;;;;;;0.83;0.70;;;;;;;8.03;100.00;99326.95;5142855;56;1136759;-80
2024/04/03 05:40:37;;;;;;;0.45;0.42;;;;;;;7.73;100.00;99315.93;5134612;56;1146168;-82
2024/04/03 05:45:43;;;;;;;0.65;0.65;;;;;;;7.59;100.00;99333.37;5154246;56;1136631;-79
2024/04/03 05:51:00;;;;;;;1.50;0.63;;;;;;;7.53;100.00;99329.92;5141442;56;1136564;-82
2024/04/03 05:56:06;;;;;;;2.08;0.90;;;;;;;7.49;100.00;99328.02;5142035;56;1136823;-82
2024/04/03 06:01:12;;;;;;;7.70;1.80;;;;;;;7.51;100.00;99330.05;5163329;56;1136897;-81
2024/04/03 06:06:18;;;;;;;2.17;1.67;;;;;;;7.53;100.00;99334.70;5143241;56;1137119;-81
2024/04/03 06:11:23;;;;;;;6.13;1.60;;;;;;;7.53;100.00;99343.91;5143514;56;1136549;-81
2024/04/03 06:16:30;;;;;;;1.98;1.60;;;;;;;7.54;100.00;99345.58;5177586;56;1146298;-82
2024/04/03 06:21:36;;;;;;;6.45;3.30;;;;;;;7.56;100.00;99346.30;5139653;56;1136682;-82
2024/04/03 06:26:42;;;;;;;3.27;1.60;;;;;;;7.62;100.00;99345.80;5143926;56;1136904;-82
2024/04/03 06:31:49;;;;;;;2.45;1.60;;;;;;;7.68;100.00;99350.52;5163402;56;1136768;-81
2024/04/03 06:36:55;;;;;;;1.50;1.40;;;;;;;7.76;100.00;99355.98;5143443;56;1136740;-81
2024/04/03 06:42:01;;;;;;;1.60;1.50;;;;;;;7.78;100.00;99355.86;5143410;56;1136710;-82
2024/04/03 06:47:06;;;;;;;5.67;2.25;;;;;;;7.80;100.00;99361.80;5087246;56;1136817;-82
2024/04/03 06:52:12;;;;;;;2.97;2.50;;;;;;;7.81;100.00;99365.27;5091588;55;1136881;-81
2024/04/03 06:57:18;;;;;;;4.00;3.00;;;;;;;7.87;100.00;99378.77;5143237;56;1136539;-82
2024/04/03 07:02:24;;;;;;;8.50;4.67;;;;;;;7.87;100.00;99380.08;5163690;56;1136272;-80
2024/04/03 07:07:29;;;;;;;3.43;3.13;;;;;;;7.88;100.00;99392.76;5143105;56;1136761;-80
2024/04/03 07:12:35;;;;;;;4.00;2.83;;;;;;;7.87;100.00;99402.94;5142878;56;1136734;-81
2024/04/03 07:17:41;;;;;;;2.83;2.50;;;;;;;7.83;100.00;99406.30;5124147;56;1136624;-80
2024/04/03 07:22:46;;;;;;;6.67;3.27;;;;;;;7.77;100.00;99412.09;5147544;56;1136616;-80
2024/04/03 07:27:55;;;;;;;5.53;2.80;;;;;;;7.69;100.00;99419.78;5127415;56;1136422;-80
2024/04/03 07:33:01;;;;;;;3.62;2.37;;;;;;;7.64;100.00;99433.78;5127100;56;1136663;-81
2024/04/03 07:38:08;;;;;;;3.77;2.60;;;;;;;7.65;100.00;99442.88;5147297;56;1136639;-80
2024/04/03 07:43:13;;;;;;;6.23;2.80;;;;;;;7.71;100.00;99440.23;4959739;57;1136236;-81
2024/04/03 07:48:19;;;;;;;3.57;2.60;;;;;;;7.74;100.00;99451.83;5097135;56;1136313;-81
2024/04/03 07:53:24;;;;;;;5.83;3.00;;;;;;;7.89;100.00;99456.30;5062838;56;1136211;-81
2024/04/03 07:58:31;;;;;;;3.90;2.20;;;;;;;7.90;100.00;99464.55;5059472;56;1136418;-82
2024/04/03 08:03:37;;;;;;;5.80;3.53;;;;;;;7.75;100.00;99467.97;5125237;55;1136709;-81
2024/04/03 08:08:43;;;;;;;6.20;3.90;;;;;;;7.70;100.00;99492.51;5127086;56;1136553;-80
2024/04/03 08:13:48;;;;;;;8.63;4.40;;;;;;;7.61;100.00;99498.53;5143683;56;1136689;-81
2024/04/03 08:18:54;;;;;;;4.20;2.40;;;;;;;7.54;100.00;99507.88;5136702;56;1136408;-80
2024/04/03 08:24:02;;;;;;;5.17;3.13;;;;;;;7.39;100.00;99521.30;5138553;56;1136743;-80
2024/04/03 08:29:07;;;;;;;5.93;2.27;;;;;;;7.39;100.00;99534.45;5158463;56;1136627;-80
2024/04/03 08:34:13;;;;;;;1.82;1.72;;;;;;;7.41;100.00;99536.49;5138643;56;1136497;-80
2024/04/03 08:39:19;;;;;;;3.63;2.03;;;;;;;7.50;100.00;99541.95;5066876;56;1136708;-80
2024/04/03 08:44:32;;;;;;;3.43;1.90;;;;;;;7.61;100.00;99547.22;5101800;56;1136721;-80
2024/04/03 08:49:38;;;;;;;5.78;2.70;;;;;;;7.52;100.00;99563.72;5137789;56;1171520;-80
2024/04/03 08:54:45;;;;;;;5.73;3.20;;;;;;;7.52;100.00;99563.72;5138862;56;1137020;-80
2024/04/03 08:59:50;;;;;;;5.42;2.72;;;;;;;7.59;100.00;99567.07;5158554;56;1136370;-81
2024/04/03 09:04:56;;;;;;;6.57;3.40;;;;;;;7.87;100.00;99570.94;5138838;56;1136718;-80
2024/04/03 09:10:02;;;;;;;9.17;3.27;;;;;;;8.02;100.00;99589.42;5135270;56;1136657;-80
2024/04/03 09:15:10;;;;;;;4.17;2.70;;;;;;;8.21;100.00;99591.39;5158655;56;1134431;-80
2024/04/03 09:20:25;;;;;;;8.30;4.07;;;;;;;8.50;100.00;99598.70;5130689;56;1136309;-79
2024/04/03 09:25:32;;;;;;;5.90;3.70;;;;;;;8.47;100.00;99606.38;5127388;56;1136762;-79
2024/04/03 09:30:47;;;;;;;6.40;4.20;;;;;;;8.09;100.00;99623.53;5148231;56;1134551;-80
2024/04/03 09:35:53;;;;;;;6.80;5.17;;;;;;;7.96;100.00;99632.52;5123299;55;1243542;-81
2024/04/03 09:41:02;;;;;;;10.60;5.00;;;;;;;7.78;100.00;99634.03;5124360;56;1134450;-81
2024/04/03 09:46:07;;;;;;;8.53;4.93;;;;;;;7.67;100.00;99656.75;5147273;56;1137018;-80
2024/04/03 09:51:13;;;;;;;10.20;5.85;;;;;;;7.72;100.00;99662.50;5126694;56;1171128;-79
2024/04/03 09:56:19;;;;;;;10.40;4.70;;;;;;;7.65;100.00;99671.82;5125445;56;1233710;-80
2024/04/03 10:01:33;;;;;;;6.03;4.23;;;;;;;7.70;100.00;99674.10;5144910;56;1240744;-81
2024/04/03 10:06:41;;;;;;;6.10;3.70;;;;;;;7.78;100.00;99703.30;5126675;56;1239945;-81
2024/04/03 10:11:50;;;;;;;7.93;5.57;;;;;;;7.62;100.00;99706.78;5112264;56;1241738;-78
2024/04/03 10:17:00;;;;;;;7.30;4.73;;;;;;;7.55;100.00;99713.46;5103209;56;1135266;-80
2024/04/03 10:22:07;;;;;;;6.60;3.60;;;;;;;7.51;100.00;99717.28;5134276;56;1134734;-80
2024/04/03 10:27:12;;;;;;;7.50;5.10;;;;;;;7.40;100.00;99722.91;5099846;56;1237192;-81
2024/04/03 10:32:18;;;;;;;7.77;5.20;;;;;;;7.39;100.00;99734.37;5157259;56;1171716;-80
2024/04/03 10:37:24;;;;;;;6.43;4.80;;;;;;;7.51;100.00;99743.11;5134572;56;1244625;-80
2024/04/03 10:42:30;;;;;;;7.17;5.50;;;;;;;7.62;100.00;99740.98;5135248;56;1251591;-79
2024/04/03 10:47:36;;;;;;;9.53;6.60;;;;;;;7.78;100.00;99752.00;5163246;56;1242885;-81
2024/04/03 10:52:45;;;;;;;9.43;6.33;;;;;;;7.88;100.00;99750.78;5141256;56;1251907;-81
2024/04/03 10:57:52;;;;;;;10.50;6.33;;;;;;;8.09;100.00;99764.91;5132390;56;1252480;-79
2024/04/03 11:02:59;;;;;;;11.75;7.28;;;;;;;8.03;100.00;99772.80;5050304;57;1136850;-80
2024/04/03 11:08:09;;;;;;;9.43;6.70;;;;;;;7.97;100.00;99782.48;5072929;57;1136771;-80
2024/04/03 11:13:22;;;;;;;15.30;8.77;;;;;;;7.83;100.00;99786.67;5052047;57;1249041;-80
2024/04/03 11:18:24;;;;;;;9.43;5.72;;;;;;;7.78;100.00;99781.43;5052592;57;1136627;-80
2024/04/03 11:23:29;;;;;;;12.93;5.53;;;;;;;7.98;100.00;99795.17;5073361;57;1136480;-79
2024/04/03 11:28:35;;;;;;;12.30;7.67;;;;;;;8.05;100.00;99795.91;5129722;56;1256701;-79
2024/04/03 11:33:41;;;;;;;11.40;6.60;;;;;;;8.40;100.00;99796.26;5137712;56;1136687;-80
2024/04/03 11:38:47;;;;;;;10.85;6.70;;;;;;;8.96;100.00;99800.88;5138823;56;1138768;-80
2024/04/03 11:43:52;;;;;;;11.67;6.80;;;;;;;9.20;100.00;99807.22;5158350;56;1138791;-80
2024/04/03 11:48:59;;;;;;;9.30;6.17;;;;;;;9.27;100.00;99808.88;5138817;56;1138785;-80
2024/04/03 11:54:07;;;;;;;12.40;6.17;;;;;;;9.19;100.00;99816.10;5138866;56;1137115;-79
2024/04/03 11:59:12;;;;;;;9.37;6.03;;;;;;;9.07;100.00;99825.03;5159283;56;1136533;-80
2024/04/03 12:04:18;;;;;;;10.37;6.73;;;;;;;9.29;100.00;99826.27;5138250;56;1136704;-79
2024/04/03 12:09:24;;;;;;;14.67;6.67;;;;;;;9.48;100.00;99832.98;5138923;56;1138968;-80
2024/04/03 12:14:30;;;;;;;9.50;6.17;;;;;;;9.96;100.00;99836.38;5159039;56;1138973;-80
2024/04/03 12:19:52;;;;;;;9.63;5.37;;;;;;;10.35;100.00;99842.71;5138993;56;1136579;-79
2024/04/03 12:24:52;;;;;;;10.85;7.25;;;;;;;10.51;100.00;99843.53;5137261;56;1138702;-80
2024/04/03 12:29:58;;;;;;;9.97;6.47;;;;;;;10.47;100.00;99836.83;5158084;56;1140832;-80
2024/04/03 12:35:04;;;;;;;7.33;4.97;;;;;;;10.58;100.00;99842.84;5137972;56;1138705;-80
2024/04/03 12:40:11;;;;;;;7.70;4.13;;;;;;;10.71;100.00;99843.06;5138495;56;1138562;-81
2024/04/03 12:45:17;;;;;;;7.47;4.85;;;;;;;10.78;100.00;99847.69;5158562;56;1138457;-79
2024/04/03 12:50:23;;;;;;;7.00;4.73;;;;;;;11.01;100.00;99843.45;5138503;56;1138707;-79
2024/04/03 12:55:28;;;;;;;8.33;4.93;;;;;;;11.02;100.00;99859.68;5139010;56;1138604;-79
2024/04/03 13:00:35;;;;;;;9.47;5.87;;;;;;;11.16;100.00;99854.81;5131613;56;1138753;-79
2024/04/03 13:05:42;;;;;;;17.50;6.17;;;;;;;11.28;100.00;99866.13;5116074;56;1254788;-79
2024/04/03 13:10:48;;;;;;;9.05;5.10;;;;;;;11.39;100.00;99868.62;5137893;56;1140937;-80
2024/04/03 13:16:00;;;;;;;5.85;4.62;;;;;;;11.42;100.00;99869.67;5159189;56;1139056;-80
2024/04/03 13:21:06;;;;;;;12.73;6.07;;;;;;;11.43;100.00;99877.13;5137200;56;1138640;-79
2024/04/03 13:26:12;;;;;;;9.27;6.20;;;;;;;11.42;100.00;99882.08;5137950;56;1140689;-80
2024/04/03 13:31:17;;;;;;;8.77;6.37;;;;;;;11.44;100.00;99888.91;5157513;56;1138711;-79
2024/04/03 13:36:25;;;;;;;11.03;6.23;;;;;;;11.63;100.00;99892.84;5138500;56;1138871;-79
2024/04/03 13:41:31;;;;;;;5.97;4.70;;;;;;;11.78;100.00;99901.71;5135427;56;1140865;-80
2024/04/03 13:46:38;;;;;;;6.50;4.15;;;;;;;11.69;100.00;99895.92;5140573;56;1138850;-81
2024/04/03 13:51:45;;;;;;;6.60;4.87;;;;;;;11.70;100.00;99899.75;5142154;56;1138762;-80
2024/04/03 13:56:50;;;;;;;6.03;5.12;;;;;;;11.83;100.00;99896.83;5138147;56;1138691;-78
2024/04/03 14:01:56;;;;;;;8.70;5.30;;;;;;;12.08;100.00;99898.86;5138261;56;1138974;-82
2024/04/03 14:07:02;;;;;;;9.07;5.67;;;;;;;12.17;100.00;99899.83;5118646;56;1138722;-83
2024/04/03 14:12:08;;;;;;;5.43;4.10;;;;;;;12.32;100.00;99909.83;5066209;56;1138926;-81
2024/04/03 14:17:14;;;;;;;8.43;4.70;;;;;;;12.26;100.00;99908.23;5127092;56;1138764;-81
2024/04/03 14:22:20;;;;;;;5.90;4.23;;;;;;;12.32;100.00;99920.92;5153339;56;1138833;-82
2024/04/03 14:27:27;;;;;;;5.53;4.20;;;;;;;12.32;100.00;99923.08;5125168;56;1138631;-82
2024/04/03 14:32:33;;;;;;;7.12;4.25;;;;;;;12.36;100.00;99924.96;5120459;56;1138714;-82
2024/04/03 14:37:39;;;;;;;5.60;4.20;;;;;;;12.49;100.00;99927.28;5120963;56;1138753;-82
2024/04/03 14:42:44;;;;;;;8.63;5.27;;;;;;;12.57;100.00;99931.36;5158644;56;1138921;-82
2024/04/03 14:47:54;;;;;;;6.60;5.08;;;;;;;12.63;100.00;99939.58;5108317;56;1139042;-82
2024/04/03 14:53:00;;;;;;;6.27;4.03;;;;;;;12.72;100.00;99937.02;5132269;56;1138440;-82
2024/04/03 14:58:06;;;;;;;5.37;4.10;;;;;;;12.69;100.00;99942.95;5158706;56;1138664;-82
2024/04/03 15:03:13;;;;;;;7.03;4.47;;;;;;;12.60;100.00;99939.86;5134502;56;1138955;-82
2024/04/03 15:08:23;;;;;;;7.63;5.73;;;;;;;12.53;100.00;99936.59;5138397;56;1138564;-79
2024/04/03 15:13:28;;;;;;;5.97;4.43;;;;;;;12.51;100.00;99935.45;5121203;55;1139062;-80
2024/04/03 15:18:34;;;;;;;8.00;5.10;;;;;;;12.65;100.00;99944.74;5083448;56;1138401;-79
2024/04/03 15:23:40;;;;;;;6.27;5.10;;;;;;;12.66;100.00;99951.72;5136712;56;1139001;-80
2024/04/03 15:28:46;;;;;;;7.15;4.30;;;;;;;12.71;100.00;99960.05;5120674;56;1138881;-79
2024/04/03 15:33:52;;;;;;;8.73;5.60;;;;;;;12.72;100.00;99960.89;5115750;56;1138679;-80
2024/04/03 15:38:57;;;;;;;12.00;6.50;;;;;;;12.67;100.00;99958.70;5134653;56;1138611;-80
2024/04/03 15:44:04;;;;;;;8.67;5.33;;;;;;;12.67;100.00;99963.52;5130521;56;1140713;-80
2024/04/03 15:49:10;;;;;;;8.13;5.60;;;;;;;12.39;100.00;99977.69;5145564;56;1138669;-79
2024/04/03 15:54:16;;;;;;;28.73;19.80;;;;;;;12.21;100.00;99982.08;5150539;56;1138399;-79
2024/04/03 15:59:22;;;;;;;8.73;5.47;;;;;;;12.16;100.00;99984.31;5130610;56;1142673;-82
2024/04/03 16:04:28;;;;;;;9.78;6.35;;;;;;;12.19;100.00;99989.34;5097889;56;1138556;-79
2024/04/03 16:09:34;;;;;;;9.27;5.97;;;;;;;12.18;100.00;99994.28;5118171;56;1138641;-80
2024/04/03 16:14:40;;;;;;;17.57;8.35;;;;;;;12.27;100.00;99994.75;5114099;56;1138761;-80
2024/04/03 16:19:48;;;;;;;12.35;6.97;;;;;;;12.38;100.00;99997.72;5129055;56;1140934;-81
2024/04/03 16:24:53;;;;;;;33.08;13.75;;;;;;;12.22;100.00;100000.98;5107309;56;1141014;-79
2024/04/03 16:29:59;;;;;;;16.50;8.57;;;;;;;12.10;100.00;100004.75;5092127;56;1145575;-80
2024/04/03 16:35:05;;;;;;;13.97;8.03;;;;;;;12.03;100.00;100013.77;5093691;56;1143160;-81
2024/04/03 16:40:11;;;;;;;20.27;11.00;;;;;;;11.95;100.00;100017.59;5143256;55;1143290;-79
2024/04/03 16:45:17;;;;;;;64.93;48.77;;;;;;;11.90;100.00;100031.77;5086455;56;1145230;-79
2024/04/03 16:50:23;;;;;;;46.60;31.10;;;;;;;11.77;100.00;100033.34;5109221;56;1144857;-79
2024/04/03 16:55:29;;;;;;;41.73;20.03;;;;;;;11.70;100.00;100036.18;5064947;56;1144770;-79
2024/04/03 17:00:35;;;;;;;38.00;18.20;;;;;;;11.66;100.00;100039.23;5103722;56;1145288;-79
2024/04/03 17:05:41;;;;;;;99.77;62.40;;;;;;;11.56;100.00;100041.39;5069813;56;1144968;-79
2024/04/03 17:10:52;;;;;;;121.90;75.67;;;;;;;11.53;100.00;100040.82;5085832;56;1145258;-80
2024/04/03 17:15:58;;;;;;;57.17;33.50;;;;;;;11.49;100.00;100059.27;5069586;56;1146830;-79
2024/04/03 17:21:04;;;;;;;70.83;33.90;;;;;;;11.51;100.00;100067.44;5084832;56;1144858;-80
2024/04/03 17:26:10;;;;;;;75.90;39.03;;;;;;;11.46;100.00;100069.64;5092780;56;1145066;-80
2024/04/03 17:31:16;;;;;;;52.10;27.80;;;;;;;11.40;100.00;100072.02;5148159;56;1145690;-80
2024/04/03 17:36:22;;;;;;;94.73;61.73;;;;;;;11.32;100.00;100084.58;5127036;56;1145206;-80
2024/04/03 17:41:30;;;;;;;67.83;35.70;;;;;;;11.25;100.00;100086.11;5144214;56;1145154;-80
2024/04/03 17:46:35;;;;;;;27.33;16.23;;;;;;;11.18;100.00;100086.27;5133193;56;1144853;-81
2024/04/03 17:51:41;;;;;;;11.70;6.77;;;;;;;11.09;100.00;100097.67;5129402;56;1191161;-80
2024/04/03 17:56:47;;;;;;;7.03;4.33;;;;;;;10.86;100.00;100101.80;5129688;56;1143281;-80
2024/04/03 18:01:52;;;;;;;6.93;3.73;;;;;;;10.71;100.00;100110.19;5062525;57;1141191;-80
2024/04/03 18:06:58;;;;;;;8.00;3.80;;;;;;;10.61;100.00;100117.23;5127290;56;1141364;-79
2024/04/03 18:12:04;;;;;;;11.83;8.73;;;;;;;10.58;100.00;100127.09;5128171;56;1140803;-79
2024/04/03 18:17:10;;;;;;;4.93;4.40;;;;;;;10.52;100.00;100125.47;5087198;56;1142882;-80
2024/04/03 18:22:18;;;;;;;13.80;11.23;;;;;;;10.43;100.00;100129.70;5106143;56;1140807;-80
2024/04/03 18:27:24;;;;;;;4.57;2.70;;;;;;;10.32;100.00;100144.78;5105497;56;1145039;-80
2024/04/03 18:32:30;;;;;;;4.08;2.65;;;;;;;10.28;100.00;100146.83;5142656;56;1140835;-80
2024/04/03 18:37:38;;;;;;;5.40;3.47;;;;;;;10.20;100.00;100146.63;5122688;56;1141193;-79
2024/04/03 18:42:43;;;;;;;5.47;3.43;;;;;;;10.07;100.00;100148.58;5122994;56;1140719;-81
2024/04/03 18:47:49;;;;;;;4.80;3.62;;;;;;;9.90;100.00;100160.50;5075138;56;1140956;-81
2024/04/03 18:52:54;;;;;;;6.17;4.33;;;;;;;9.80;100.00;100168.30;5112763;56;1138536;-80
2024/04/03 18:58:00;;;;;;;8.05;4.22;;;;;;;9.72;100.00;100172.53;5126267;56;1138669;-81
2024/04/03 19:03:06;;;;;;;10.08;6.80;;;;;;;9.56;100.00;100178.18;5126565;56;1138564;-80
2024/04/03 19:08:12;;;;;;;11.07;6.50;;;;;;;9.56;100.00;100186.11;5147394;55;1141183;-80
2024/04/03 19:13:18;;;;;;;6.90;5.17;;;;;;;9.55;100.00;100186.22;5130178;56;1141061;-83
2024/04/03 19:18:23;;;;;;;15.30;10.10;;;;;;;9.45;100.00;100194.03;5129302;56;1138696;-81
2024/04/03 19:23:29;;;;;;;5.73;4.07;;;;;;;9.33;100.00;100189.69;5142073;56;1143094;-81
2024/04/03 19:28:38;;;;;;;7.13;4.93;;;;;;;9.23;100.00;100189.56;5054646;56;1136591;-80
2024/04/03 19:33:44;;;;;;;6.13;3.20;;;;;;;9.12;100.00;100191.72;5126844;56;1138825;-81
2024/04/03 19:38:55;;;;;;;8.30;5.00;;;;;;;9.03;100.00;100190.24;5096545;56;1138827;-79
2024/04/03 19:43:57;;;;;;;8.10;4.13;;;;;;;8.94;100.00;100189.16;5140646;56;1138886;-80
2024/04/03 19:49:03;;;;;;;5.93;4.40;;;;;;;8.86;100.00;100188.89;5102127;56;1138647;-79
2024/04/03 19:54:09;;;;;;;14.60;7.58;;;;;;;8.79;100.00;100203.51;5123376;56;1136784;-80
2024/04/03 19:59:15;;;;;;;15.20;8.23;;;;;;;8.69;100.00;100201.21;5122222;56;1139121;-80
2024/04/03 20:04:20;;;;;;;4.67;3.50;;;;;;;8.64;100.00;100204.18;5074679;56;1140569;-80
2024/04/03 20:09:26;;;;;;;4.85;3.85;;;;;;;8.58;100.00;100200.67;5047690;56;1138662;-80
2024/04/03 20:14:32;;;;;;;11.07;6.67;;;;;;;8.57;100.00;100206.89;5012812;57;1138995;-82
2024/04/03 20:19:37;;;;;;;8.67;6.07;;;;;;;8.54;100.00;100212.89;5068581;56;1141124;-82
2024/04/03 20:24:43;;;;;;;17.77;10.90;;;;;;;8.53;100.00;100214.69;5046403;56;1138587;-80
2024/04/03 20:29:50;;;;;;;8.47;4.83;;;;;;;8.54;100.00;100212.89;4967581;57;1140695;-82
2024/04/03 20:34:56;;;;;;;11.13;4.00;;;;;;;8.41;100.00;100207.66;5031743;57;1136472;-81
2024/04/03 20:40:02;;;;;;;8.10;4.43;;;;;;;8.33;100.00;100215.30;5015029;57;1140550;-81
2024/04/03 20:45:08;;;;;;;7.80;5.13;;;;;;;8.27;100.00;100220.50;5096147;56;1138454;-80
2024/04/03 20:50:15;;;;;;;6.63;4.10;;;;;;;8.16;100.00;100219.13;5122050;56;1138855;-80
2024/04/03 20:55:24;;;;;;;9.23;5.33;;;;;;;8.16;100.00;100219.13;5041955;57;1138722;-81
2024/04/03 21:00:29;;;;;;;8.93;4.90;;;;;;;8.07;100.00;100223.28;5049446;57;1136802;-80
2024/04/03 21:05:35;;;;;;;7.17;4.53;;;;;;;7.98;100.00;100218.65;5071491;57;1138679;-80
2024/04/03 21:10:42;;;;;;;14.20;7.62;;;;;;;7.97;100.00;100218.28;5065895;57;1138632;-81
2024/04/03 21:15:49;;;;;;;24.63;11.93;;;;;;;7.90;100.00;100217.53;5089420;56;1140829;-81
2024/04/03 21:20:55;;;;;;;23.07;11.90;;;;;;;7.86;100.00;100222.64;5095753;57;1143052;-80
2024/04/03 21:26:01;;;;;;;19.60;10.47;;;;;;;7.77;100.00;100221.52;5134824;57;1140769;-79
2024/04/03 21:31:11;;;;;;;11.60;7.20;;;;;;;7.75;100.00;100217.67;5126743;57;1142837;-80
2024/04/03 21:36:17;;;;;;;10.13;5.57;;;;;;;7.84;100.00;100220.11;5162851;57;1140574;-80
2024/04/03 21:41:23;;;;;;;15.30;4.63;;;;;;;7.84;100.00;100222.75;5055502;57;1140641;-81
2024/04/03 21:46:28;;;;;;;11.40;4.13;;;;;;;7.77;100.00;100221.52;5029665;57;1141122;-80
2024/04/03 21:51:34;;;;;;;6.97;4.37;;;;;;;7.63;100.00;100217.70;5047841;57;1140705;-80
2024/04/03 21:56:40;;;;;;;7.10;3.93;;;;;;;7.57;100.00;100226.01;5139442;56;1138419;-80
2024/04/03 22:01:46;;;;;;;9.73;4.00;;;;;;;7.57;100.00;100222.91;5095933;56;1138912;-80
2024/04/03 22:06:56;;;;;;;12.33;4.67;;;;;;;7.52;100.00;100221.53;5028636;58;1139007;-80
2024/04/03 22:12:02;;;;;;;17.37;6.53;;;;;;;7.46;100.00;100218.88;5041184;57;1138816;-81
2024/04/03 22:17:08;;;;;;;9.45;5.12;;;;;;;7.50;100.00;100232.16;5034137;57;1140803;-81
2024/04/03 22:22:14;;;;;;;8.10;4.35;;;;;;;7.50;100.00;100232.16;4992973;58;1138737;-80
2024/04/03 22:27:20;;;;;;;10.53;5.30;;;;;;;7.58;100.00;100231.17;4999799;58;1138974;-80
2024/04/03 22:32:26;;;;;;;5.85;4.67;;;;;;;7.56;100.00;100238.33;5005560;58;1162513;-80
2024/04/03 22:37:33;;;;;;;10.73;6.13;;;;;;;7.49;100.00;100241.00;5100165;57;1136804;-80
2024/04/03 22:42:38;;;;;;;6.60;4.93;;;;;;;7.39;100.00;100227.65;4984015;58;1175935;-80
2024/04/03 22:47:47;;;;;;;8.83;5.23;;;;;;;7.31;100.00;100217.30;5067718;56;1138763;-80
2024/04/03 22:52:53;;;;;;;10.97;4.77;;;;;;;7.20;100.00;100214.55;5055700;56;1138828;-81
2024/04/03 22:57:59;;;;;;;8.53;4.30;;;;;;;7.11;100.00;100217.81;4983898;57;1138550;-80
2024/04/03 23:03:05;;;;;;;8.23;4.20;;;;;;;7.06;100.00;100220.27;5133371;56;1138534;-81
2024/04/03 23:08:11;;;;;;;9.73;4.45;;;;;;;7.13;100.00;100222.02;5136072;56;1138944;-81
2024/04/03 23:13:17;;;;;;;12.13;5.37;;;;;;;7.11;100.00;100223.91;5086082;56;1138901;-81